Halle, Belgium
Current Conditions -  °F | °C
As of 12:50 AM on Thursday 27 Nov 2014 (Local Time) from EBBR Reporting Station
Broken Clouds Broken Clouds  
Wind Chill: 46°   Ceiling: 2000
Heat Index: 48°   Visibility: 4mi
Dew Point: 45°   Wind: 5mph
Humidity: 87%   Direction: 140°SE
Pressure: 29.8"   Gusts: NA
Location:  50.73°N, 4.24°E
Report Text: EBBR 262350Z 14004KT 6000 SCT017 BKN020 BKN048 09/07 Q1009 NOSIG
Loading
Personal Weather Stations






























Interactive Weather Map New forecast layout! Learn more

10-Day Weather Forecast

Advertisements
Track Severe Weather on mobile